LTAU/ASR METAR and TAF weather

Enter ICAO airport designator
Station Type Date Time Source
LTAU METAR 2019/02/17 16:20 UTC NOAA

LTAU 171620Z 03004KT CAVOK 05/M06 Q1020 NOSIG


Station Type Date Time Source
LTAU Decoded METAR 2019/02/17 16:20 UTC NOAA

Kayseri / Erkilet, Turkey (LTAU) 38-47N 035-29E 1054M
Feb 17, 2019 - 11:20 AM EST / 2019.02.17 1620 UTC
Wind: from the NNE (030 degrees) at 5 MPH (4 KT):0
Visibility: greater than 7 mile(s):0
Temperature: 41 F (5 C)
Dew Point: 21 F (-6 C)
Relative Humidity: 44%
Pressure (altimeter): 30.12 in. Hg (1020 hPa)
ob: LTAU 171620Z 03004KT CAVOK 05/M06 Q1020 NOSIG
cycle: 16

Station Type Date Time Source
LTAU TAF 2019/02/17 12:03 UTC NOAA

TAF LTAU 171040Z 1712/1812 VRB02KT CAVOK
BECMG 1808/1811 FEW040


Example: see airport list